Impacts TAF Board INFO
FOR SITUATIONAL AWARENESS. NOT TO BE USED FOR FLIGHT PLANNING PURPOSES.
IDs:

KSFO - San Francisco Intl, CA, US

Issued at 1453 UTC 25 Feb 2018
Updated at 1722 UTC 25 Feb 2018
Potential Impact None Slight Moderate High
Time1656Z 25/18Z 25/19Z 25/20Z 25/21Z 25/22Z 25/23Z 26/00Z 26/01Z 26/02Z 26/03Z 26/04Z 26/05Z 26/06Z>>
Type OBS PRVL PRVL PRVL PRVL PRVL PRVL PRVL PRVL PRVL PRVL PRVL PRVL PRVL
VIS 10 >6 >6 >6 >6 >6 >6 >6 >6 >6 >6 >6 >6 >6
CIG -- -- -- -- -- -- -- -- -- -- 20 20 20 20
Cover CLR FEW FEW FEW FEW SCT SCT SCT SCT SCT BKN BKN BKN BKN
FltCat VFR VFR VFR VFR VFR VFR VFR VFR VFR VFR MVFR MVFR MVFR MVFR
WX -- -- -- -- -- -- -- -- -- -- -- -- -- --
WDir VRB VRB 270 270 270 280 280 280 280 280 270 270 270 270
WSpd 0 4 10 10 10 18 18 18 18 18 17 17 17 17
WGst -- -- -- -- -- -- -- -- -- -- -- -- -- --

Raw TAF
KSFO 251453Z 2515/2618 VRB04KT P6SM FEW150
  FM251900 27010KT P6SM FEW020 FEW150
  FM252200 28018KT P6SM SCT020 SCT150
  FM260300 27017KT P6SM BKN020
  FM261000 23009KT 5SM -RA OVC015
  FM261500 30016KT 5SM -RA OVC018


Raw METAR
KSFO 251656Z 00000KT 10SM CLR 10/05 A3036 RMK AO2 SLP282 T01000050 $
KSFO 251556Z 00000KT 10SM FEW200 07/04 A3036 RMK AO2 SLP280 T00670039 $
KSFO 251456Z 00000KT 10SM FEW200 05/02 A3035 RMK AO2 SLP276 T00500017 53007 $

METAR Board
Radar Display
Forecast Discussion

FOR SITUATIONAL AWARENESS. NOT TO BE USED FOR FLIGHT PLANNING PURPOSES.